createdAt,value
2018-02-27T00:00:16.412Z,55.72
2018-02-27T00:01:16.464Z,55.91
2018-02-27T00:02:16.142Z,55.82
2018-02-27T00:03:16.440Z,56.01
2018-02-27T00:04:16.449Z,56.29
2018-02-27T00:05:16.163Z,56.1
2018-02-27T00:06:16.514Z,56.2
2018-02-27T00:07:16.463Z,56.1
2018-02-27T00:08:16.476Z,56.2
2018-02-27T00:09:16.514Z,56.29
2018-02-27T00:10:16.202Z,56.01
2018-02-27T00:11:16.592Z,56.01
2018-02-27T00:12:16.216Z,56.01
2018-02-27T00:13:16.227Z,56.2
2018-02-27T00:14:16.563Z,56.2
2018-02-27T00:15:16.239Z,56.01
2018-02-27T00:16:16.529Z,56.2
2018-02-27T00:17:16.254Z,56.29
2018-02-27T00:18:16.542Z,56.38
2018-02-27T00:19:16.550Z,56.48
2018-02-27T00:20:16.556Z,56.29
2018-02-27T00:21:16.283Z,56.48
2018-02-27T00:22:16.289Z,56.2
2018-02-27T00:23:16.298Z,56.01
2018-02-27T00:24:16.306Z,56.1
2018-02-27T00:25:16.594Z,56.29
2018-02-27T00:26:16.651Z,56.2
2018-02-27T00:27:16.613Z,56.2
2018-02-27T00:28:16.336Z,56.01
2018-02-27T00:29:16.626Z,56.01
2018-02-27T00:30:16.354Z,55.91
2018-02-27T00:31:16.691Z,56.1
2018-02-27T00:32:16.364Z,56.01
2018-02-27T00:33:16.657Z,56.01
2018-02-27T00:34:16.378Z,56.01
2018-02-27T00:35:16.673Z,56.2
2018-02-27T00:36:16.443Z,56.01
2018-02-27T00:37:16.400Z,56.29
2018-02-27T00:38:16.689Z,56.48
2018-02-27T00:39:16.701Z,56.38
2018-02-27T00:40:16.426Z,56.57
2018-02-27T00:41:16.439Z,56.38
2018-02-27T00:42:16.722Z,56.67
2018-02-27T00:43:16.745Z,56.2
2018-02-27T00:44:16.737Z,56.57
2018-02-27T00:45:16.743Z,56.48
2018-02-27T00:46:16.477Z,56.48
2018-02-27T00:47:16.760Z,56.38
2018-02-27T00:48:16.774Z,56.67
2018-02-27T00:49:16.772Z,56.57
2018-02-27T00:50:16.496Z,56.38
2018-02-27T00:51:16.503Z,56.48
2018-02-27T00:52:16.795Z,56.57
2018-02-27T00:53:16.519Z,56.38
2018-02-27T00:54:16.815Z,56.67
2018-02-27T00:55:16.817Z,56.57
2018-02-27T00:56:16.541Z,56.67
2018-02-27T00:57:16.548Z,57.04
2018-02-27T00:58:16.837Z,56.67
2018-02-27T00:59:16.851Z,56.76
2018-02-27T01:00:16.852Z,56.76
2018-02-27T01:01:16.579Z,56.76
2018-02-27T01:02:16.588Z,57.04
2018-02-27T01:03:16.603Z,57.14
2018-02-27T01:04:16.602Z,57.01
2018-02-27T01:05:16.609Z,56.67
2018-02-27T01:06:16.949Z,57.23
2018-02-27T01:07:16.904Z,57.2
2018-02-27T01:08:16.914Z,57.23
2018-02-27T01:09:16.970Z,57.01
2018-02-27T01:10:16.924Z,57.23
2018-02-27T01:11:16.654Z,56.85
2018-02-27T01:12:16.947Z,57.14
2018-02-27T01:13:16.665Z,57.14
2018-02-27T01:14:16.958Z,57.23
2018-02-27T01:15:16.966Z,57.04
2018-02-27T01:16:17.028Z,56.85
2018-02-27T01:17:16.694Z,57.2
2018-02-27T01:18:16.703Z,57.3
2018-02-27T01:19:16.996Z,57.11
2018-02-27T01:20:16.719Z,57.49
2018-02-27T01:21:17.058Z,57.2
2018-02-27T01:22:16.740Z,57.39
2018-02-27T01:23:17.023Z,57.39
2018-02-27T01:24:16.754Z,57.3
2018-02-27T01:25:16.757Z,57.33
2018-02-27T01:26:17.094Z,57.04
2018-02-27T01:27:17.050Z,57.39
2018-02-27T01:28:17.059Z,57.01
2018-02-27T01:29:17.064Z,57.2
2018-02-27T01:30:17.074Z,57.39
2018-02-27T01:31:17.131Z,57.11
2018-02-27T01:32:17.088Z,57.2
2018-02-27T01:33:17.096Z,57.3
2018-02-27T01:34:17.101Z,57.3
2018-02-27T01:35:17.107Z,57.58
2018-02-27T01:36:17.168Z,57.49
2018-02-27T01:37:17.121Z,57.68
2018-02-27T01:38:17.138Z,57.2
2018-02-27T01:39:16.854Z,57.49
2018-02-27T01:40:17.146Z,57.77
2018-02-27T01:41:17.204Z,57.77
2018-02-27T01:42:17.158Z,58.15
2018-02-27T01:43:17.167Z,58.25
2018-02-27T01:44:16.892Z,58.25
2018-02-27T01:45:17.182Z,57.68
2018-02-27T01:46:16.955Z,57.3
2018-02-27T01:47:17.196Z,57.58
2018-02-27T01:48:17.212Z,57.58
2018-02-27T01:49:17.209Z,57.68
2018-02-27T01:50:17.214Z,58.25
2018-02-27T01:51:17.229Z,58.25
2018-02-27T01:52:16.949Z,58.25
2018-02-27T01:53:17.238Z,58.25
2018-02-27T01:54:16.964Z,58.15
2018-02-27T01:55:16.968Z,58.15
2018-02-27T01:56:17.263Z,58.15
2018-02-27T01:57:17.265Z,58.15
2018-02-27T01:58:17.275Z,58.06
2018-02-27T01:59:16.999Z,58.15
2018-02-27T02:00:17.288Z,58.15
2018-02-27T02:01:17.014Z,57.68
2018-02-27T02:02:17.305Z,57.68
2018-02-27T02:03:17.026Z,58.06
2018-02-27T02:04:17.316Z,57.96
2018-02-27T02:05:17.323Z,58.06
2018-02-27T02:06:17.106Z,58.15
2018-02-27T02:07:17.342Z,58.06
2018-02-27T02:08:17.460Z,58.06
2018-02-27T02:09:17.351Z,57.96
2018-02-27T02:10:17.079Z,58.15
2018-02-27T02:11:17.366Z,57.77
2018-02-27T02:12:17.377Z,57.77
2018-02-27T02:13:17.116Z,57.77
2018-02-27T02:14:17.391Z,57.87
2018-02-27T02:15:17.397Z,57.87
2018-02-27T02:16:17.454Z,57.87
2018-02-27T02:17:17.407Z,58.25
2018-02-27T02:18:17.451Z,57.68
2018-02-27T02:19:17.425Z,57.96
2018-02-27T02:20:17.430Z,58.06
2018-02-27T02:21:17.486Z,57.96
2018-02-27T02:22:17.444Z,57.77
2018-02-27T02:23:17.172Z,57.77
2018-02-27T02:24:17.462Z,57.77
2018-02-27T02:25:17.469Z,58.15
2018-02-27T02:26:17.523Z,58.15
2018-02-27T02:27:17.478Z,57.87
2018-02-27T02:28:17.488Z,58.25
2018-02-27T02:29:17.496Z,58.53
2018-02-27T02:30:17.218Z,58.25
2018-02-27T02:31:17.515Z,57.87
2018-02-27T02:32:17.515Z,57.68
2018-02-27T02:33:17.243Z,57.68
2018-02-27T02:34:17.544Z,57.77
2018-02-27T02:35:17.537Z,57.68
2018-02-27T02:36:17.557Z,58.15
2018-02-27T02:37:17.267Z,58.15
2018-02-27T02:38:17.290Z,58.15
2018-02-27T02:39:17.564Z,58.25
2018-02-27T02:40:17.572Z,58.15
2018-02-27T02:41:17.633Z,58.25
2018-02-27T02:42:17.589Z,58.15
2018-02-27T02:43:17.602Z,57.96
2018-02-27T02:44:17.608Z,57.87
2018-02-27T02:45:17.609Z,58.53
2018-02-27T02:46:17.611Z,58.53
2018-02-27T02:47:17.622Z,58.53
2018-02-27T02:48:17.346Z,58.44
2018-02-27T02:49:17.351Z,58.44
2018-02-27T02:50:17.644Z,58.44
2018-02-27T02:51:17.367Z,58.44
2018-02-27T02:52:17.680Z,58.34
2018-02-27T02:53:17.382Z,58.44
2018-02-27T02:54:17.391Z,58.25
2018-02-27T02:55:17.683Z,58.53
2018-02-27T02:56:17.684Z,58.53
2018-02-27T02:57:17.693Z,58.44
2018-02-27T02:58:17.698Z,58.44
2018-02-27T02:59:17.705Z,58.44
2018-02-27T03:00:17.429Z,58.81
2018-02-27T03:01:17.438Z,57.96
2018-02-27T03:02:17.727Z,57.87
2018-02-27T03:03:17.731Z,58.15
2018-02-27T03:04:17.743Z,58.06
2018-02-27T03:05:17.746Z,58.06
2018-02-27T03:06:17.469Z,58.15
2018-02-27T03:07:17.757Z,58.25
2018-02-27T03:08:17.484Z,58.25
2018-02-27T03:09:17.772Z,58.15
2018-02-27T03:10:17.781Z,58.15
2018-02-27T03:11:17.792Z,58.25
2018-02-27T03:12:17.796Z,58.15
2018-02-27T03:13:17.518Z,58.15
2018-02-27T03:14:17.807Z,58.15
2018-02-27T03:15:17.814Z,58.06
2018-02-27T03:16:17.823Z,57.68
2018-02-27T03:17:17.828Z,57.87
2018-02-27T03:18:17.552Z,58.15
2018-02-27T03:19:17.842Z,57.87
2018-02-27T03:20:17.573Z,58.06
2018-02-27T03:21:17.860Z,58.72
2018-02-27T03:22:17.578Z,58.53
2018-02-27T03:23:17.589Z,58.53
2018-02-27T03:24:17.874Z,58.34
2018-02-27T03:25:17.601Z,58.34
2018-02-27T03:26:17.888Z,58.44
2018-02-27T03:27:17.897Z,58.25
2018-02-27T03:28:17.905Z,58.44
2018-02-27T03:29:17.914Z,58.34
2018-02-27T03:30:17.925Z,58.62
2018-02-27T03:31:17.934Z,58.34
2018-02-27T03:32:17.932Z,58.62
2018-02-27T03:33:17.939Z,58.72
2018-02-27T03:34:17.964Z,58.62
2018-02-27T03:35:17.953Z,58.44
2018-02-27T03:36:17.958Z,58.34
2018-02-27T03:37:18.020Z,58.44
2018-02-27T03:38:17.689Z,58.81
2018-02-27T03:39:17.981Z,58.62
2018-02-27T03:40:17.988Z,58.72
2018-02-27T03:41:18.004Z,58.62
2018-02-27T03:42:17.998Z,58.62
2018-02-27T03:43:18.006Z,59.19
2018-02-27T03:44:18.013Z,58.81
2018-02-27T03:45:18.019Z,58.81
2018-02-27T03:46:17.744Z,59.28
2018-02-27T03:47:18.083Z,58.91
2018-02-27T03:48:18.046Z,59
2018-02-27T03:49:18.047Z,59.09
2018-02-27T03:50:18.053Z,59
2018-02-27T03:51:18.066Z,59
2018-02-27T03:52:18.125Z,59
2018-02-27T03:53:18.072Z,59
2018-02-27T03:54:18.084Z,58.91
2018-02-27T03:55:18.085Z,59
2018-02-27T03:56:18.096Z,58.91
2018-02-27T03:57:18.101Z,58.81
2018-02-27T03:58:18.108Z,58.91
2018-02-27T03:59:17.833Z,58.91
2018-02-27T04:00:18.121Z,59.38
2018-02-27T04:01:18.129Z,59.57
2018-02-27T04:02:18.136Z,59.38
2018-02-27T04:03:17.859Z,58.91
2018-02-27T04:04:17.866Z,59.47
2018-02-27T04:05:18.157Z,59.09
2018-02-27T04:06:17.877Z,59.47
2018-02-27T04:07:17.934Z,59.38
2018-02-27T04:08:18.247Z,59.57
2018-02-27T04:09:18.182Z,59
2018-02-27T04:10:18.187Z,59.47
2018-02-27T04:11:18.193Z,59.47
2018-02-27T04:12:17.920Z,59.38
2018-02-27T04:13:18.210Z,59.28
2018-02-27T04:14:18.215Z,59.19
2018-02-27T04:15:18.223Z,59.19
2018-02-27T04:16:18.234Z,59.28
2018-02-27T04:17:18.240Z,59.28
2018-02-27T04:18:18.242Z,59.19
2018-02-27T04:19:17.966Z,59.19
2018-02-27T04:20:17.975Z,59.19
2018-02-27T04:21:18.262Z,59.38
2018-02-27T04:22:18.272Z,59
2018-02-27T04:23:18.279Z,59
2018-02-27T04:24:18.002Z,59.28
2018-02-27T04:25:18.292Z,59.19
2018-02-27T04:26:18.015Z,59.19
2018-02-27T04:27:18.301Z,59.38
2018-02-27T04:28:18.310Z,59.57
2018-02-27T04:29:18.037Z,59.09
2018-02-27T04:30:18.323Z,59.19
2018-02-27T04:31:18.332Z,59.19
2018-02-27T04:32:18.057Z,59.47
2018-02-27T04:33:18.347Z,59.63
2018-02-27T04:34:18.066Z,59
2018-02-27T04:35:18.355Z,59.57
2018-02-27T04:36:18.367Z,59.38
2018-02-27T04:37:18.374Z,59.63
2018-02-27T04:38:18.384Z,59.47
2018-02-27T04:39:18.384Z,59.66
2018-02-27T04:40:18.392Z,59.66
2018-02-27T04:41:18.115Z,59.54
2018-02-27T04:42:18.124Z,59.57
2018-02-27T04:43:18.128Z,59.57
2018-02-27T04:44:18.425Z,59.76
2018-02-27T04:45:18.144Z,59.63
2018-02-27T04:46:18.434Z,59.57
2018-02-27T04:47:18.446Z,59.44
2018-02-27T04:48:18.443Z,59.54
2018-02-27T04:49:18.453Z,59.66
2018-02-27T04:50:18.456Z,59.54
2018-02-27T04:51:18.188Z,59.54
2018-02-27T04:52:18.190Z,59.73
2018-02-27T04:53:18.203Z,59.73
2018-02-27T04:54:18.483Z,59.73
2018-02-27T04:55:18.489Z,60.01
2018-02-27T04:56:18.499Z,59.82
2018-02-27T04:57:18.221Z,59.82
2018-02-27T04:58:18.510Z,59.92
2018-02-27T04:59:18.234Z,60.01
2018-02-27T05:00:18.239Z,59.92
2018-02-27T05:01:18.529Z,60.01
2018-02-27T05:02:18.539Z,60.01
2018-02-27T05:03:18.546Z,60.14
2018-02-27T05:04:18.271Z,60.2
2018-02-27T05:05:18.563Z,60.3
2018-02-27T05:06:18.564Z,59.82
2018-02-27T05:07:18.569Z,60.3
2018-02-27T05:08:18.576Z,60.2
2018-02-27T05:09:18.300Z,60.3
2018-02-27T05:10:18.596Z,59.82
2018-02-27T05:11:18.599Z,59.82
2018-02-27T05:12:18.323Z,59.92
2018-02-27T05:13:18.663Z,60.2
2018-02-27T05:14:18.620Z,60.11
2018-02-27T05:15:18.625Z,60.01
2018-02-27T05:16:18.688Z,60.2
2018-02-27T05:17:18.634Z,60.01
2018-02-27T05:18:18.639Z,60.11
2018-02-27T05:19:18.370Z,60.2
2018-02-27T05:20:18.382Z,59.82
2018-02-27T05:21:18.663Z,59.73
2018-02-27T05:22:18.672Z,60.2
2018-02-27T05:23:18.723Z,60.11
2018-02-27T05:24:18.680Z,60.2
2018-02-27T05:25:18.698Z,60.2
2018-02-27T05:26:18.697Z,60.67
2018-02-27T05:27:18.703Z,60.67
2018-02-27T05:28:18.476Z,60.67
2018-02-27T05:29:18.723Z,60.58
2018-02-27T05:30:18.725Z,60.01
2018-02-27T05:31:18.450Z,60.67
2018-02-27T05:32:18.735Z,60.49
2018-02-27T05:33:18.509Z,60.49
2018-02-27T05:34:18.747Z,60.58
2018-02-27T05:35:18.472Z,60.58
2018-02-27T05:36:18.761Z,60.49
2018-02-27T05:37:18.771Z,60.39
2018-02-27T05:38:18.775Z,60.49
2018-02-27T05:39:18.780Z,60.01
2018-02-27T05:40:18.792Z,60.3
2018-02-27T05:41:18.510Z,60.11
2018-02-27T05:42:18.802Z,60.2
2018-02-27T05:43:18.524Z,60.2
2018-02-27T05:44:18.819Z,60.39
2018-02-27T05:45:18.821Z,60.39
2018-02-27T05:46:18.830Z,60.3
2018-02-27T05:47:18.834Z,60.11
2018-02-27T05:48:18.844Z,60.2
2018-02-27T05:49:18.874Z,59.92
2018-02-27T05:50:18.851Z,60.3
2018-02-27T05:51:18.575Z,60.3
2018-02-27T05:52:18.872Z,60.2
2018-02-27T05:53:18.875Z,60.3
2018-02-27T05:54:18.886Z,60.3
2018-02-27T05:55:18.886Z,60.11
2018-02-27T05:56:18.901Z,60.2
2018-02-27T05:57:18.618Z,60.3
2018-02-27T05:58:18.626Z,60.67
2018-02-27T05:59:18.913Z,60.11
2018-02-27T06:00:18.922Z,60.67
2018-02-27T06:01:18.987Z,60.67
2018-02-27T06:02:18.934Z,60.67
2018-02-27T06:03:18.943Z,60.67
2018-02-27T06:04:18.944Z,60.49
2018-02-27T06:05:18.955Z,60.49
2018-02-27T06:06:18.963Z,60.49
2018-02-27T06:07:18.969Z,60.49
2018-02-27T06:08:18.687Z,60.49
2018-02-27T06:09:18.695Z,60.67
2018-02-27T06:10:18.707Z,60.58
2018-02-27T06:11:18.992Z,60.58
2018-02-27T06:12:18.998Z,60.67
2018-02-27T06:13:19.012Z,60.39
2018-02-27T06:14:18.727Z,60.39
2018-02-27T06:15:19.022Z,60.39
2018-02-27T06:16:19.028Z,60.39
2018-02-27T06:17:18.747Z,60.67
2018-02-27T06:18:18.753Z,60.67
2018-02-27T06:19:19.044Z,60.77
2018-02-27T06:20:18.767Z,60.77
2018-02-27T06:21:19.060Z,60.67
2018-02-27T06:22:18.782Z,60.67
2018-02-27T06:23:19.076Z,60.86
2018-02-27T06:24:18.792Z,60.77
2018-02-27T06:25:19.087Z,60.67
2018-02-27T06:26:19.085Z,60.58
2018-02-27T06:27:19.094Z,60.77
2018-02-27T06:28:19.104Z,60.58
2018-02-27T06:29:19.105Z,60.58
2018-02-27T06:30:18.830Z,60.67
2018-02-27T06:31:18.842Z,60.67
2018-02-27T06:32:19.125Z,60.86
2018-02-27T06:33:19.132Z,60.96
2018-02-27T06:34:18.859Z,60.39
2018-02-27T06:35:19.154Z,60.67
2018-02-27T06:36:19.158Z,60.49
2018-02-27T06:37:19.226Z,60.58
2018-02-27T06:38:18.882Z,60.77
2018-02-27T06:39:18.941Z,60.77
2018-02-27T06:40:18.896Z,60.67
2018-02-27T06:41:19.196Z,60.77
2018-02-27T06:42:18.908Z,60.49
2018-02-27T06:43:19.200Z,60.49
2018-02-27T06:44:19.210Z,60.77
2018-02-27T06:45:18.928Z,60.77
2018-02-27T06:46:19.221Z,60.77
2018-02-27T06:47:18.944Z,60.86
2018-02-27T06:48:19.231Z,60.86
2018-02-27T06:49:19.290Z,60.77
2018-02-27T06:50:18.963Z,61.05
2018-02-27T06:51:19.246Z,60.96
2018-02-27T06:52:18.972Z,61.24
2018-02-27T06:53:18.979Z,60.96
2018-02-27T06:54:19.267Z,61.05
2018-02-27T06:55:19.297Z,60.96
2018-02-27T06:56:19.280Z,61.08
2018-02-27T06:57:19.008Z,60.99
2018-02-27T06:58:19.296Z,61.05
2018-02-27T06:59:19.299Z,60.96
2018-02-27T07:00:19.029Z,60.99
2018-02-27T07:01:19.320Z,61.08
2018-02-27T07:02:19.322Z,60.99
2018-02-27T07:03:19.326Z,60.99
2018-02-27T07:04:19.334Z,60.89
2018-02-27T07:05:19.056Z,60.89
2018-02-27T07:06:19.375Z,61.08
2018-02-27T07:07:19.356Z,60.8
2018-02-27T07:08:19.365Z,60.7
2018-02-27T07:09:19.151Z,60.61
2018-02-27T07:10:19.119Z,60.61
2018-02-27T07:11:19.096Z,60.42
2018-02-27T07:12:19.383Z,60.8
2018-02-27T07:13:19.395Z,60.7
2018-02-27T07:14:19.452Z,60.52
2018-02-27T07:15:19.123Z,60.52
2018-02-27T07:16:19.128Z,60.42
2018-02-27T07:17:19.136Z,60.23
2018-02-27T07:18:19.145Z,60.23
2018-02-27T07:19:19.155Z,60.04
2018-02-27T07:20:19.155Z,60.23
2018-02-27T07:21:19.446Z,60.14
2018-02-27T07:22:19.452Z,60.52
2018-02-27T07:23:19.461Z,60.23
2018-02-27T07:24:19.464Z,60.04
2018-02-27T07:25:19.190Z,60.33
2018-02-27T07:26:19.196Z,60.33
2018-02-27T07:27:19.485Z,60.14
2018-02-27T07:28:19.496Z,60.14
2018-02-27T07:29:19.499Z,60.7
2018-02-27T07:30:19.221Z,60.23
2018-02-27T07:31:19.513Z,60.23
2018-02-27T07:32:19.232Z,60.33
2018-02-27T07:33:19.525Z,60.04
2018-02-27T07:34:19.632Z,60.04
2018-02-27T07:35:19.655Z,60.33
2018-02-27T07:36:19.546Z,60.14
2018-02-27T07:37:19.270Z,60.14
2018-02-27T07:38:19.276Z,60.33
2018-02-27T07:39:19.283Z,60.04
2018-02-27T07:40:19.287Z,59.57
2018-02-27T07:41:19.294Z,59.66
2018-02-27T07:42:19.585Z,59.57
2018-02-27T07:43:19.307Z,59.66
2018-02-27T07:44:19.315Z,59.57
2018-02-27T07:45:19.326Z,59.57
2018-02-27T07:46:19.331Z,59.57
2018-02-27T07:47:19.753Z,59.47
2018-02-27T07:48:19.344Z,59.28
2018-02-27T07:49:19.636Z,59.38
2018-02-27T07:50:19.639Z,59.47
2018-02-27T07:51:19.361Z,59.41
2018-02-27T07:52:19.654Z,59.38
2018-02-27T07:53:19.658Z,59.28
2018-02-27T07:54:19.664Z,59.57
2018-02-27T07:55:19.670Z,58.84
2018-02-27T07:56:19.682Z,58.75
2018-02-27T07:57:19.687Z,58.37
2018-02-27T07:58:19.693Z,57.99
2018-02-27T07:59:19.700Z,57.99
2018-02-27T08:00:19.711Z,57.9
2018-02-27T08:01:19.432Z,58.18
2018-02-27T08:02:19.441Z,58.28
2018-02-27T08:03:19.732Z,57.33
2018-02-27T08:04:19.742Z,57.14
2018-02-27T08:05:19.457Z,57.61
2018-02-27T08:06:19.463Z,57.52
2018-02-27T08:07:19.752Z,57.9
2018-02-27T08:08:19.479Z,57.42
2018-02-27T08:09:19.768Z,57.61
2018-02-27T08:10:19.493Z,57.14
2018-02-27T08:11:19.782Z,57.33
2018-02-27T08:12:19.790Z,57.42
2018-02-27T08:13:19.515Z,57.04
2018-02-27T08:14:19.804Z,57.33
2018-02-27T08:15:19.527Z,57.42
2018-02-27T08:16:19.535Z,57.42
2018-02-27T08:17:19.828Z,57.23
2018-02-27T08:18:19.547Z,57.33
2018-02-27T08:19:19.838Z,57.33
2018-02-27T08:20:19.846Z,57.52
2018-02-27T08:21:19.855Z,57.42
2018-02-27T08:22:19.861Z,57.33
2018-02-27T08:23:19.868Z,56.76
2018-02-27T08:24:19.873Z,56.85
2018-02-27T08:25:19.877Z,56.57
2018-02-27T08:26:19.884Z,56.85
2018-02-27T08:27:19.612Z,56.48
2018-02-27T08:28:19.616Z,56.48
2018-02-27T08:29:19.905Z,56.29
2018-02-27T08:30:19.916Z,56.57
2018-02-27T08:31:19.922Z,56.6
2018-02-27T08:32:19.644Z,56.2
2018-02-27T08:33:19.935Z,56.32
2018-02-27T08:34:19.660Z,56.6
2018-02-27T08:35:19.670Z,56.41
2018-02-27T08:36:19.961Z,56.13
2018-02-27T08:37:19.963Z,56.22
2018-02-27T08:38:19.977Z,56.13
2018-02-27T08:39:19.983Z,56.22
2018-02-27T08:40:19.984Z,56.13
2018-02-27T08:41:19.993Z,56.13
2018-02-27T08:42:20.002Z,56.13
2018-02-27T08:43:20.013Z,56.32
2018-02-27T08:44:20.078Z,56.32
2018-02-27T08:45:20.022Z,56.32
2018-02-27T08:46:20.025Z,56.03
2018-02-27T08:47:19.754Z,55.75
2018-02-27T08:48:20.049Z,55.27
2018-02-27T08:49:20.049Z,55.27
2018-02-27T08:50:20.059Z,55.08
2018-02-27T08:51:20.087Z,54.99
2018-02-27T08:52:20.075Z,54.8
2018-02-27T08:53:20.078Z,54.99
2018-02-27T08:54:20.085Z,54.42
2018-02-27T08:55:20.097Z,54.42
2018-02-27T08:56:20.104Z,54.52
2018-02-27T08:57:20.104Z,54.52
2018-02-27T08:58:20.117Z,54.04
2018-02-27T08:59:20.127Z,54.52
2018-02-27T09:00:20.131Z,54.26
2018-02-27T09:01:19.853Z,53.69
2018-02-27T09:02:19.862Z,53.5
2018-02-27T09:03:20.156Z,53.13
2018-02-27T09:04:20.156Z,53.22
2018-02-27T09:05:20.225Z,53.41
2018-02-27T09:06:20.178Z,52.94
2018-02-27T09:07:20.181Z,53.13
2018-02-27T09:08:19.907Z,53.5
2018-02-27T09:09:20.198Z,52.75
2018-02-27T09:10:20.211Z,53.22
2018-02-27T09:11:20.216Z,53.03
2018-02-27T09:12:20.228Z,53.5
2018-02-27T09:13:20.225Z,53.5
2018-02-27T09:14:19.951Z,53.31
2018-02-27T09:15:20.295Z,53.13
2018-02-27T09:16:19.975Z,52.94
2018-02-27T09:17:19.978Z,53.31
2018-02-27T09:18:20.264Z,52.84
2018-02-27T09:19:20.338Z,53.22
2018-02-27T09:20:20.348Z,53.5
2018-02-27T09:21:20.007Z,52.84
2018-02-27T09:22:20.013Z,52.27
2018-02-27T09:23:20.305Z,52.18
2018-02-27T09:24:20.313Z,52.18
2018-02-27T09:25:20.324Z,52.27
2018-02-27T09:26:20.044Z,51.89
2018-02-27T09:27:20.051Z,52.18
2018-02-27T09:28:20.349Z,51.82
2018-02-27T09:29:20.071Z,51.61
2018-02-27T09:30:20.362Z,51.51
2018-02-27T09:31:20.432Z,51.45
2018-02-27T09:32:20.376Z,51.14
2018-02-27T09:33:20.389Z,51.04
2018-02-27T09:34:20.109Z,51.16
2018-02-27T09:35:20.397Z,51.16
2018-02-27T09:36:20.409Z,51.32
2018-02-27T09:37:20.414Z,51.35
2018-02-27T09:38:20.468Z,51.45
2018-02-27T09:39:20.429Z,51.64
2018-02-27T09:40:20.154Z,51.82
2018-02-27T09:41:20.446Z,51.82
2018-02-27T09:42:20.454Z,51.82
2018-02-27T09:43:20.464Z,51.45
2018-02-27T09:44:20.189Z,51.54
2018-02-27T09:45:20.196Z,51.45
2018-02-27T09:46:20.493Z,51.73
2018-02-27T09:47:20.213Z,51.82
2018-02-27T09:48:20.501Z,51.35
2018-02-27T09:49:20.232Z,51.16
2018-02-27T09:50:20.518Z,51.35
2018-02-27T09:51:20.576Z,51.07
2018-02-27T09:52:20.536Z,51.26
2018-02-27T09:53:20.543Z,51.07
2018-02-27T09:54:20.268Z,51.07
2018-02-27T09:55:20.557Z,51.16
2018-02-27T09:56:20.333Z,51.07
2018-02-27T09:57:20.580Z,50.88
2018-02-27T09:58:20.585Z,50.88
2018-02-27T09:59:20.592Z,50.78
2018-02-27T10:00:20.601Z,50.78
2018-02-27T10:01:20.388Z,50.88
2018-02-27T10:02:20.621Z,50.78
2018-02-27T10:03:20.624Z,50.99
2018-02-27T10:04:20.637Z,50.62
2018-02-27T10:05:20.409Z,50.62
2018-02-27T10:06:20.713Z,50.52
2018-02-27T10:07:20.377Z,50.24
2018-02-27T10:08:20.668Z,50.05
2018-02-27T10:09:20.674Z,50.15
2018-02-27T10:10:20.402Z,50.05
2018-02-27T10:11:20.419Z,50.24
2018-02-27T10:12:20.703Z,50.24
2018-02-27T10:13:20.705Z,49.95
2018-02-27T10:14:20.437Z,49.95
2018-02-27T10:15:20.443Z,49.95
2018-02-27T10:16:20.734Z,50.15
2018-02-27T10:17:20.465Z,50.15
2018-02-27T10:18:20.756Z,50.43
2018-02-27T10:19:20.765Z,50.9
2018-02-27T10:20:20.487Z,50.81
2018-02-27T10:21:20.779Z,50.71
2018-02-27T10:22:20.791Z,50.15
2018-02-27T10:23:20.515Z,49.86
2018-02-27T10:24:20.804Z,50.15
2018-02-27T10:25:20.813Z,50.05
2018-02-27T10:26:20.822Z,50.05
2018-02-27T10:27:20.548Z,50.15
2018-02-27T10:28:20.839Z,49.86
2018-02-27T10:29:20.566Z,49.67
2018-02-27T10:30:20.858Z,50.05
2018-02-27T10:31:20.876Z,49.76
2018-02-27T10:32:20.872Z,50.05
2018-02-27T10:33:20.597Z,50.05
2018-02-27T10:34:20.898Z,49.98
2018-02-27T10:35:20.615Z,50.17
2018-02-27T10:36:20.907Z,50.26
2018-02-27T10:37:20.919Z,49.98
2018-02-27T10:38:20.924Z,50.07
2018-02-27T10:39:20.933Z,49.41
2018-02-27T10:40:20.659Z,49.41
2018-02-27T10:41:20.679Z,49.13
2018-02-27T10:42:20.960Z,49.51
2018-02-27T10:43:20.973Z,48.75
2018-02-27T10:44:20.983Z,48.75
2018-02-27T10:45:21.048Z,48.27
2018-02-27T10:46:20.736Z,48.46
2018-02-27T10:47:21.004Z,47.71
2018-02-27T10:48:20.735Z,47.8
2018-02-27T10:49:21.026Z,47.42
2018-02-27T10:50:21.035Z,47.42
2018-02-27T10:51:20.758Z,47.99
2018-02-27T10:52:21.056Z,47.32
2018-02-27T10:53:21.060Z,47.32
2018-02-27T10:54:20.792Z,47.8
2018-02-27T10:55:21.078Z,47.71
2018-02-27T10:56:20.809Z,47.8
2018-02-27T10:57:20.814Z,47.8
2018-02-27T10:58:21.106Z,47.89
2018-02-27T10:59:21.115Z,47.8
2018-02-27T11:00:21.177Z,47.8
2018-02-27T11:01:21.131Z,47.63
2018-02-27T11:02:21.141Z,47.53
2018-02-27T11:03:21.154Z,47.25
2018-02-27T11:04:21.161Z,46.49
2018-02-27T11:05:21.172Z,46.21
2018-02-27T11:06:21.184Z,46.21
2018-02-27T11:07:21.192Z,46.3
2018-02-27T11:08:20.917Z,46.49
2018-02-27T11:09:21.211Z,46.59
2018-02-27T11:10:21.221Z,46.3
2018-02-27T11:11:21.229Z,46.02
2018-02-27T11:12:20.955Z,45.54
2018-02-27T11:13:20.964Z,45.26
2018-02-27T11:14:21.259Z,45.54
2018-02-27T11:15:20.981Z,45.64
2018-02-27T11:16:21.275Z,45.45
2018-02-27T11:17:21.293Z,45.54
2018-02-27T11:18:21.300Z,45.54
2018-02-27T11:19:21.304Z,46.02
2018-02-27T11:20:21.029Z,45.83
2018-02-27T11:21:21.328Z,45.17
2018-02-27T11:22:21.335Z,44.79
2018-02-27T11:23:21.059Z,44.6
2018-02-27T11:24:21.351Z,44.4
2018-02-27T11:25:21.086Z,44.21
2018-02-27T11:26:21.086Z,43.93
2018-02-27T11:27:21.378Z,44.02
2018-02-27T11:28:21.392Z,44.31
2018-02-27T11:29:21.117Z,44.4
2018-02-27T11:30:21.412Z,44.6
2018-02-27T11:31:21.419Z,44.69
2018-02-27T11:32:21.433Z,44.98
2018-02-27T11:33:21.156Z,44.79
2018-02-27T11:34:21.446Z,44.5
2018-02-27T11:35:21.456Z,44.5
2018-02-27T11:36:21.571Z,44.4
2018-02-27T11:37:21.244Z,44.21
2018-02-27T11:38:21.487Z,43.93
2018-02-27T11:39:21.498Z,43.57
2018-02-27T11:40:21.506Z,43.57
2018-02-27T11:41:21.600Z,43.57
2018-02-27T11:42:21.529Z,43.57
2018-02-27T11:43:21.537Z,43.86
2018-02-27T11:44:21.547Z,43.86
2018-02-27T11:45:21.562Z,43.48
2018-02-27T11:46:21.568Z,43.29
2018-02-27T11:47:21.293Z,42.82
2018-02-27T11:48:21.303Z,42.82
2018-02-27T11:49:21.606Z,42.63
2018-02-27T11:50:21.325Z,42.63
2018-02-27T11:51:21.336Z,42.82
2018-02-27T11:52:21.625Z,42.91
2018-02-27T11:53:21.635Z,42.91
2018-02-27T11:54:21.646Z,43.38
2018-02-27T11:55:21.380Z,42.82
2018-02-27T11:56:21.387Z,42.72
2018-02-27T11:57:21.394Z,42.82
2018-02-27T11:58:21.690Z,42.34
2018-02-27T11:59:21.696Z,42.53
2018-02-27T12:00:21.427Z,42.82
2018-02-27T12:01:21.716Z,42.63
2018-02-27T12:02:21.808Z,43.19
2018-02-27T12:03:21.737Z,42.82
2018-02-27T12:04:21.748Z,42.82
2018-02-27T12:05:21.755Z,42.34
2018-02-27T12:06:21.770Z,42.82
2018-02-27T12:07:21.504Z,42.91
2018-02-27T12:08:21.787Z,42.15
2018-02-27T12:09:21.515Z,42.43
2018-02-27T12:10:21.526Z,42.34
2018-02-27T12:11:21.542Z,41.77
2018-02-27T12:12:21.830Z,41.96
2018-02-27T12:13:21.555Z,41.77
2018-02-27T12:14:21.847Z,41.58
2018-02-27T12:15:21.857Z,41.49
2018-02-27T12:16:21.866Z,41.67
2018-02-27T12:17:21.601Z,41.96
2018-02-27T12:18:21.606Z,41.96
2018-02-27T12:19:21.902Z,41.96
2018-02-27T12:20:21.631Z,42.05
2018-02-27T12:21:21.645Z,41.77
2018-02-27T12:22:21.651Z,41.67
2018-02-27T12:23:21.658Z,41.58
2018-02-27T12:24:21.957Z,41.3
2018-02-27T12:25:21.963Z,40.92
2018-02-27T12:26:21.981Z,40.44
2018-02-27T12:27:21.700Z,40.92
2018-02-27T12:28:21.995Z,41.01
2018-02-27T12:29:22.066Z,41.01
2018-02-27T12:30:22.039Z,40.44
2018-02-27T12:31:22.029Z,41.01
2018-02-27T12:32:22.042Z,40.44
2018-02-27T12:33:22.048Z,40.06
2018-02-27T12:34:22.065Z,39.78
2018-02-27T12:35:22.068Z,39.3
2018-02-27T12:36:22.077Z,39.4
2018-02-27T12:37:22.090Z,39.01
2018-02-27T12:38:22.104Z,39.21
2018-02-27T12:39:22.128Z,39.59
2018-02-27T12:40:22.120Z,40.06
2018-02-27T12:41:22.128Z,40.25
2018-02-27T12:42:22.142Z,39.59
2018-02-27T12:43:22.150Z,38.35
2018-02-27T12:44:22.165Z,37.69
2018-02-27T12:45:22.174Z,37.59
2018-02-27T12:46:22.182Z,37.3
2018-02-27T12:47:22.196Z,37.78
2018-02-27T12:48:22.255Z,37.21
2018-02-27T12:49:22.213Z,37.78
2018-02-27T12:50:22.222Z,37.4
2018-02-27T12:51:21.952Z,37.59
2018-02-27T12:52:22.248Z,38.26
2018-02-27T12:53:21.971Z,38.82
2018-02-27T12:54:22.267Z,39.11
2018-02-27T12:55:22.280Z,39.4
2018-02-27T12:56:22.284Z,39.59